Flight Track Log - Related Links

Times and Time Zones

All times are in EDT time to prevent confusion due to time zone crossing. See the MAU689 flight status page for this flight to view local times or setup timezone preferences in your user account.

Time Position Orientation Groundspeed Altitude Reporting Facility
EDT Latitude Longitude Course Direction KTS MPH feet Rate Location/Type
Fri 12:48:00 PM 30.6341 120.8231 239° Southwest  Level Estimated
Fri 12:49:00 PM 30.5771 120.7160 238° Southwest  Level Estimated
Fri 12:50:00 PM 30.5200 120.6091 238° Southwest  Level Estimated
Fri 12:51:00 PM 30.4629 120.5023 238° Southwest  Level Estimated
Fri 12:52:00 PM 30.4057 120.3956 238° Southwest  Level Estimated
Fri 12:53:00 PM 30.3483 120.2890 238° Southwest  Level Estimated
Fri 12:54:00 PM 30.2909 120.1826 238° Southwest  Level Estimated
Fri 12:55:00 PM 30.2334 120.0763 238° Southwest  Level Estimated
Fri 12:56:00 PM 30.1759 119.9701 238° Southwest  Level Estimated
Fri 12:57:00 PM 30.1182 119.8640 238° Southwest  Level Estimated
Fri 12:58:00 PM 30.0605 119.7581 238° Southwest  Level Estimated
Fri 12:59:00 PM 30.0026 119.6523 238° Southwest  Level Estimated
Fri 01:00:00 PM 29.9447 119.5466 238° Southwest  Level Estimated
Fri 01:01:00 PM 29.8867 119.4410 238° Southwest  Level Estimated
Fri 01:02:00 PM 29.8286 119.3355 238° Southwest  Level Estimated
Fri 01:03:00 PM 29.7705 119.2302 238° Southwest  Level Estimated
Fri 01:04:00 PM 29.7122 119.1250 238° Southwest  Level Estimated
Fri 01:05:00 PM 29.6539 119.0199 237° Southwest  Level Estimated
Fri 01:06:00 PM 29.5955 118.9150 237° Southwest  Level Estimated
Fri 01:07:00 PM 29.5370 118.8101 237° Southwest  Level Estimated
Fri 01:08:00 PM 29.4784 118.7054 237° Southwest  Level Estimated
Fri 01:09:00 PM 29.4197 118.6008 237° Southwest  Level Estimated
Fri 01:10:00 PM 29.3610 118.4964 237° Southwest  Level Estimated
Fri 01:11:00 PM 29.3022 118.3920 237° Southwest  Level Estimated
Fri 01:12:00 PM 29.2432 118.2878 237° Southwest  Level Estimated
Fri 01:13:00 PM 29.1842 118.1836 237° Southwest  Level Estimated
Fri 01:14:00 PM 29.1252 118.0797 237° Southwest  Level Estimated
Fri 01:15:00 PM 29.0660 117.9758 237° Southwest  Level Estimated
Fri 01:16:00 PM 29.0068 117.8720 237° Southwest  Level Estimated
Fri 01:17:00 PM 28.9475 117.7684 237° Southwest  Level Estimated
Fri 01:18:00 PM 28.8881 117.6649 237° Southwest  Level Estimated
Fri 01:19:00 PM 28.8286 117.5615 237° Southwest  Level Estimated
Fri 01:20:00 PM 28.7691 117.4582 237° Southwest  Level Estimated
Fri 01:21:00 PM 28.7095 117.3550 237° Southwest  Level Estimated
Fri 01:22:00 PM 28.6498 117.2520 237° Southwest  Level Estimated
Fri 01:23:00 PM 28.5900 117.1490 237° Southwest  Level Estimated
Fri 01:24:00 PM 28.5301 117.0462 236° Southwest  Level Estimated
Fri 01:25:00 PM 28.4702 116.9436 236° Southwest  Level Estimated
Fri 01:26:00 PM 28.4102 116.8410 236° Southwest  Level Estimated
Fri 01:27:00 PM 28.3501 116.7385 236° Southwest  Level Estimated
Fri 01:28:00 PM 28.2899 116.6362 236° Southwest  Level Estimated
Fri 01:29:00 PM 28.2297 116.5339 236° Southwest  Level Estimated
Fri 01:30:00 PM 28.1694 116.4318 236° Southwest  Level Estimated
Fri 01:31:00 PM 28.1090 116.3298 236° Southwest  Level Estimated
Fri 01:32:00 PM 28.0485 116.2279 236° Southwest  Level Estimated
Fri 01:33:00 PM 27.9880 116.1262 236° Southwest  Level Estimated
Fri 01:33:31 PM 27.0858 120.0918 213° Southwest 399 459 32,100  Level FlightAware ADS-B
Fri 01:34:00 PM 27.9274 116.0245 236° Southwest  Level Estimated
Fri 01:35:00 PM 27.8667 115.9230 236° Southwest  Level Estimated
Fri 01:36:00 PM 27.8059 115.8215 236° Southwest  Level Estimated
Fri 01:36:04 PM 26.8436 119.9198 213° Southwest 400 460 32,100  Level FlightAware ADS-B
Fri 01:36:49 PM 26.7724 119.8694 212° Southwest 400 460 32,100  Level FlightAware ADS-B
Fri 01:47:14 PM 25.7171 119.2711 221° Southwest 401 461 32,100  Level FlightAware ADS-B
Fri 01:47:53 PM 25.6661 119.2154 227° Southwest 397 457 32,100 -29 Level FlightAware ADS-B
Fri 01:50:39 PM 25.4553 118.9675 227° Southwest 400 460 32,000 -353 Descending FlightAware ADS-B
Fri 01:52:42 PM 25.2988 118.7846 227° Southwest 400 460 30,400 -788 Descending FlightAware ADS-B
Fri 01:53:19 PM 25.2552 118.7336 227° Southwest 403 464 29,900 -789 Descending FlightAware ADS-B
Fri 01:53:58 PM 25.2037 118.6736 227° Southwest 407 468 29,400 -71 Descending FlightAware ADS-B
Fri 02:20:11 PM 23.0663 116.4174 214° Southwest 426 490 28,000 -52 Descending FlightAware ADS-B
Fri 02:20:48 PM 23.0093 116.3764 214° Southwest 426 490 28,000  Level FlightAware ADS-B
Fri 02:22:30 PM 22.8388 116.2544 212° Southwest 428 493 28,000  Level FlightAware ADS-B
Fri 02:23:08 PM 22.7704 116.2170 204° Southwest 435 501 28,000  Level FlightAware ADS-B
Fri 02:24:29 PM 22.6091 116.1752 184° South 452 520 28,000  Level FlightAware ADS-B
Fri 02:25:09 PM 22.5251 116.1748 184° South 452 520 28,000  Level FlightAware ADS-B
Fri 02:25:55 PM 22.4251 116.1765 184° South 452 520 28,000 320 Level FlightAware ADS-B
Fri 02:43:54 PM 20.6180 115.1942 225° Southwest 422 486 34,000 325 Climbing FlightAware ADS-B
Fri 02:44:24 PM 20.5758 115.1496 225° Southwest 422 486 34,000  Level FlightAware ADS-B
Fri 02:44:53 PM 20.5355 115.1070 225° Southwest 422 486 34,000  Level FlightAware ADS-B
Fri 02:45:24 PM 20.4924 115.0615 225° Southwest 422 486 34,000  Level FlightAware ADS-B
Fri 02:45:54 PM 20.4510 115.0178 225° Southwest 422 486 34,000  Level FlightAware ADS-B
Fri 02:46:24 PM 20.4104 114.9750 225° Southwest 422 486 34,000  Level FlightAware ADS-B
Fri 02:46:54 PM 20.3681 114.9304 225° Southwest 422 486 34,000  Level FlightAware ADS-B
Fri 02:47:24 PM 20.3282 114.8884 225° Southwest 422 486 34,000  Level FlightAware ADS-B
Fri 02:47:53 PM 20.2858 114.8438 225° Southwest 424 488 34,000  Level FlightAware ADS-B
Fri 02:48:24 PM 20.2419 114.7978 225° Southwest 424 488 34,000  Level FlightAware ADS-B
Fri 02:48:53 PM 20.2025 114.7563 225° Southwest 424 488 34,000  Level FlightAware ADS-B
Fri 02:49:24 PM 20.1591 114.7108 225° Southwest 424 488 34,000  Level FlightAware ADS-B
Fri 02:49:55 PM 20.1163 114.6660 225° Southwest 424 488 34,000  Level FlightAware ADS-B
Fri 02:50:24 PM 20.0765 114.6243 225° Southwest 424 488 34,000  Level FlightAware ADS-B
Fri 02:50:49 PM 20.0511 114.5977 225° Southwest 424 488 34,000  Level FlightAware ADS-B
Fri 02:53:00 PM 19.9233 114.3859 237° Southwest  Level Estimated
Fri 02:54:00 PM 19.8647 114.2890 237° Southwest  Level Estimated
Fri 02:55:00 PM 19.8060 114.1922 237° Southwest  Level Estimated
Fri 02:56:00 PM 19.7473 114.0954 237° Southwest  Level Estimated
Fri 02:57:00 PM 19.6885 113.9988 237° Southwest  Level Estimated
Fri 02:58:00 PM 19.6297 113.9022 237° Southwest  Level Estimated
Fri 02:59:00 PM 19.5708 113.8056 237° Southwest  Level Estimated
Fri 03:00:00 PM 19.5119 113.7092 237° Southwest  Level Estimated
Fri 03:01:00 PM 19.4529 113.6128 237° Southwest  Level Estimated
Fri 03:02:00 PM 19.3939 113.5164 237° Southwest  Level Estimated
Fri 03:03:00 PM 19.3348 113.4202 237° Southwest  Level Estimated
Fri 03:04:00 PM 19.2756 113.3240 237° Southwest  Level Estimated
Fri 03:05:00 PM 19.2164 113.2279 237° Southwest  Level Estimated
Fri 03:06:00 PM 19.1572 113.1319 237° Southwest  Level Estimated
Fri 03:07:00 PM 19.0979 113.0359 237° Southwest  Level Estimated
Fri 03:08:00 PM 19.0386 112.9400 237° Southwest  Level Estimated
Fri 03:09:00 PM 18.9792 112.8441 237° Southwest  Level Estimated
Fri 03:10:00 PM 18.9198 112.7484 237° Southwest  Level Estimated
Fri 03:11:00 PM 18.8603 112.6527 237° Southwest  Level Estimated
Fri 03:12:00 PM 18.8008 112.5570 237° Southwest  Level Estimated
Fri 03:13:00 PM 18.7412 112.4615 237° Southwest  Level Estimated
Fri 03:14:00 PM 18.7020 112.3548 249° West  Level FlightAware Approximate
Fri 03:15:00 PM 18.6423 112.2594 236° Southwest  Level Estimated
Fri 03:16:00 PM 18.5833 112.1635 237° Southwest  Level FlightAware Approximate
Fri 03:17:00 PM 18.5241 112.0678 237° Southwest  Level FlightAware Approximate
Fri 03:18:00 PM 18.4650 111.9721 237° Southwest  Level FlightAware Approximate
Fri 03:19:00 PM 18.4057 111.8765 237° Southwest  Level FlightAware Approximate
Fri 03:20:00 PM 18.3465 111.7809 237° Southwest  Level FlightAware Approximate
Fri 03:21:00 PM 18.2871 111.6854 237° Southwest  Level FlightAware Approximate
Fri 03:22:00 PM 18.2278 111.5900 237° Southwest  Level FlightAware Approximate
Fri 03:23:00 PM 18.1684 111.4946 237° Southwest  Level FlightAware Approximate
Fri 03:24:00 PM 18.1089 111.3993 237° Southwest  Level FlightAware Approximate
Fri 03:25:00 PM 18.0494 111.3041 237° Southwest  Level FlightAware Approximate
Fri 03:26:00 PM 17.9898 111.2089 237° Southwest  Level FlightAware Approximate
Fri 03:27:00 PM 17.9302 111.1138 237° Southwest  Level FlightAware Approximate
Fri 03:28:00 PM 17.8706 111.0188 237° Southwest  Level FlightAware Approximate
Fri 03:29:00 PM 17.8109 110.9238 237° Southwest  Level FlightAware Approximate
Fri 03:30:00 PM 17.7511 110.8289 237° Southwest  Level FlightAware Approximate
Fri 03:31:00 PM 17.6914 110.7341 237° Southwest  Level FlightAware Approximate
Fri 03:32:00 PM 17.6315 110.6393 236° Southwest  Level FlightAware Approximate
Fri 03:33:00 PM 17.5716 110.5445 236° Southwest  Level FlightAware Approximate
Fri 03:34:00 PM 17.5117 110.4499 236° Southwest  Level FlightAware Approximate
Fri 03:35:00 PM 17.4518 110.3553 236° Southwest  Level FlightAware Approximate
Fri 03:36:00 PM 17.3911 110.2612 236° Southwest  Level Estimated
Fri 03:37:00 PM 17.3307 110.1670 236° Southwest  Level FlightAware Approximate
Fri 03:38:00 PM 17.2703 110.0728 236° Southwest  Level FlightAware Approximate
Fri 03:39:00 PM 17.2099 109.9786 236° Southwest  Level FlightAware Approximate
Fri 03:40:00 PM 17.1494 109.8845 236° Southwest  Level FlightAware Approximate
Fri 03:41:00 PM 17.0889 109.7905 236° Southwest  Level FlightAware Approximate
Fri 03:42:00 PM 17.0283 109.6966 236° Southwest  Level FlightAware Approximate
Fri 03:43:00 PM 16.9677 109.6027 236° Southwest  Level FlightAware Approximate
Fri 03:44:00 PM 16.9070 109.5088 236° Southwest  Level FlightAware Approximate
Fri 03:45:00 PM 16.8459 109.4153 236° Southwest  Level Estimated
Fri 03:46:00 PM 16.7853 109.3215 236° Southwest  Level FlightAware Approximate
Fri 03:47:00 PM 16.7246 109.2278 236° Southwest  Level FlightAware Approximate
Fri 03:48:00 PM 16.6639 109.1341 236° Southwest  Level FlightAware Approximate
Fri 03:49:00 PM 16.6031 109.0405 236° Southwest  Level FlightAware Approximate
Fri 03:50:00 PM 16.5423 108.9470 236° Southwest  Level FlightAware Approximate
Fri 03:51:00 PM 16.4815 108.8535 236° Southwest  Level FlightAware Approximate
Fri 03:52:00 PM 16.4206 108.7601 236° Southwest  Level FlightAware Approximate
Fri 03:53:00 PM 16.3597 108.6667 236° Southwest  Level FlightAware Approximate
Fri 03:54:00 PM 16.2987 108.5734 236° Southwest  Level FlightAware Approximate
Fri 03:55:00 PM 16.2377 108.4801 236° Southwest  Level FlightAware Approximate
Fri 03:56:00 PM 16.1766 108.3869 236° Southwest  Level FlightAware Approximate
Fri 03:57:00 PM 16.1155 108.2938 236° Southwest  Level FlightAware Approximate
Fri 03:58:00 PM 16.0539 108.2010 254° West  Level Estimated
Fri 03:59:00 PM 16.0236 108.0928 254° West  Level FlightAware Approximate
Fri 04:00:00 PM 15.9933 107.9846 254° West  Level FlightAware Approximate
Fri 04:01:00 PM 15.9628 107.8765 254° West  Level FlightAware Approximate
Fri 04:02:00 PM 15.9010 107.7840 254° West  Level Estimated
Fri 04:03:00 PM 15.8766 107.6742 257° West  Level FlightAware Approximate
Fri 04:04:00 PM 15.8521 107.5645 257° West  Level FlightAware Approximate
Fri 04:05:00 PM 15.8276 107.4548 257° West  Level FlightAware Approximate
Fri 04:06:00 PM 15.8030 107.3452 257° West  Level FlightAware Approximate
Fri 04:07:00 PM 15.7784 107.2355 257° West  Level FlightAware Approximate
Fri 04:08:00 PM 15.7161 107.1434 230° Southwest  Level Estimated
Fri 04:09:00 PM 15.6460 107.0577 230° Southwest  Level FlightAware Approximate
Fri 04:10:00 PM 15.5758 106.9720 230° Southwest  Level FlightAware Approximate
Fri 04:11:00 PM 15.5056 106.8863 230° Southwest  Level FlightAware Approximate
Fri 04:12:00 PM 15.4354 106.8007 230° Southwest  Level FlightAware Approximate
Fri 04:13:00 PM 15.3651 106.7152 230° Southwest  Level FlightAware Approximate
Fri 04:14:00 PM 15.2948 106.6297 230° Southwest  Level FlightAware Approximate
Fri 04:15:00 PM 15.2245 106.5442 230° Southwest  Level FlightAware Approximate
Fri 04:16:00 PM 15.1542 106.4589 230° Southwest  Level FlightAware Approximate
Fri 04:17:00 PM 15.0838 106.3736 229° Southwest  Level FlightAware Approximate
Fri 04:18:00 PM 15.0134 106.2883 229° Southwest  Level FlightAware Approximate
Fri 04:19:00 PM 14.9429 106.2031 229° Southwest  Level FlightAware Approximate
Fri 04:20:00 PM 14.8724 106.1180 229° Southwest  Level FlightAware Approximate
Fri 04:21:00 PM 14.8019 106.0329 229° Southwest  Level FlightAware Approximate
Fri 04:22:00 PM 14.7314 105.9478 229° Southwest  Level FlightAware Approximate
Fri 04:23:00 PM 14.6608 105.8629 229° Southwest  Level FlightAware Approximate
Fri 04:24:00 PM 14.5902 105.7779 229° Southwest  Level FlightAware Approximate
Fri 04:25:00 PM 14.5196 105.6931 229° Southwest  Level FlightAware Approximate
Fri 04:26:00 PM 14.4489 105.6083 229° Southwest  Level FlightAware Approximate
Fri 04:27:00 PM 14.3782 105.5235 229° Southwest  Level FlightAware Approximate
Fri 04:28:00 PM 14.3075 105.4388 229° Southwest  Level FlightAware Approximate
Fri 04:29:00 PM 14.2367 105.3541 229° Southwest  Level FlightAware Approximate
Fri 04:30:00 PM 14.1660 105.2695 229° Southwest  Level FlightAware Approximate
Fri 04:31:00 PM 14.0951 105.1850 229° Southwest  Level FlightAware Approximate
Fri 04:32:00 PM 14.0243 105.1005 229° Southwest  Level FlightAware Approximate
Fri 04:33:00 PM 13.9534 105.0160 229° Southwest  Level FlightAware Approximate
Fri 04:34:00 PM 13.8825 104.9316 229° Southwest  Level FlightAware Approximate
Fri 04:35:00 PM 13.8116 104.8473 229° Southwest  Level FlightAware Approximate
Fri 04:36:00 PM 13.7406 104.7630 229° Southwest  Level FlightAware Approximate
Fri 04:37:00 PM 13.6696 104.6788 229° Southwest  Level FlightAware Approximate
Fri 04:38:00 PM 13.5986 104.5946 229° Southwest  Level FlightAware Approximate
Fri 04:39:00 PM 13.5276 104.5105 229° Southwest  Level FlightAware Approximate
Fri 04:40:00 PM 13.4565 104.4264 229° Southwest  Level FlightAware Approximate
Fri 04:41:00 PM 13.3854 104.3423 229° Southwest  Level FlightAware Approximate
Fri 04:42:00 PM 13.3143 104.2583 229° Southwest  Level FlightAware Approximate
Fri 04:43:00 PM 13.2431 104.1744 229° Southwest  Level FlightAware Approximate
Fri 04:44:00 PM 13.1719 104.0905 229° Southwest  Level FlightAware Approximate
Fri 04:45:00 PM 13.1007 104.0067 229° Southwest  Level FlightAware Approximate
Fri 04:46:00 PM 13.0295 103.9229 229° Southwest  Level FlightAware Approximate
Fri 04:47:00 PM 12.9582 103.8391 229° Southwest  Level FlightAware Approximate
Fri 04:48:00 PM 12.8869 103.7554 229° Southwest  Level FlightAware Approximate
Fri 04:49:00 PM 12.8156 103.6718 229° Southwest  Level FlightAware Approximate
Fri 04:50:00 PM 12.7443 103.5882 229° Southwest  Level FlightAware Approximate
Fri 04:51:00 PM 12.6729 103.5046 229° Southwest  Level FlightAware Approximate
Fri 04:52:00 PM 12.6015 103.4212 229° Southwest  Level FlightAware Approximate
Fri 04:53:00 PM 12.5301 103.3377 229° Southwest  Level FlightAware Approximate
Fri 04:54:00 PM 12.4586 103.2543 229° Southwest  Level FlightAware Approximate
Fri 04:55:00 PM 12.3871 103.1709 229° Southwest  Level FlightAware Approximate
Fri 04:56:00 PM 12.3156 103.0876 229° Southwest  Level FlightAware Approximate
Fri 04:57:00 PM 12.2441 103.0043 229° Southwest  Level FlightAware Approximate
Fri 04:58:00 PM 12.1726 102.9211 229° Southwest  Level FlightAware Approximate
Fri 04:59:00 PM 12.1010 102.8379 229° Southwest  Level FlightAware Approximate
Fri 05:00:00 PM 12.0294 102.7548 229° Southwest  Level FlightAware Approximate
Fri 05:01:00 PM 11.9578 102.6717 229° Southwest  Level FlightAware Approximate
Fri 05:02:00 PM 11.8861 102.5886 229° Southwest  Level FlightAware Approximate
Fri 05:03:00 PM 11.8145 102.5056 229° Southwest  Level FlightAware Approximate
Fri 05:04:00 PM 11.7428 102.4226 229° Southwest  Level FlightAware Approximate
Fri 05:05:00 PM 11.6710 102.3397 229° Southwest  Level FlightAware Approximate
Fri 05:06:00 PM 11.5993 102.2568 229° Southwest  Level FlightAware Approximate
Fri 05:07:00 PM 11.5275 102.1740 229° Southwest  Level FlightAware Approximate
Fri 05:08:00 PM 11.4557 102.0912 229° Southwest  Level FlightAware Approximate
Fri 05:09:00 PM 11.3839 102.0084 228° Southwest  Level FlightAware Approximate
Fri 05:10:00 PM 11.3121 101.9257 228° Southwest  Level FlightAware Approximate
Fri 05:11:00 PM 11.2402 101.8430 228° Southwest  Level FlightAware Approximate
Fri 05:12:00 PM 11.1683 101.7604 228° Southwest  Level FlightAware Approximate
Fri 05:13:00 PM 11.0964 101.6778 228° Southwest  Level FlightAware Approximate
Fri 05:14:00 PM 11.0245 101.5953 228° Southwest  Level FlightAware Approximate
Fri 05:15:00 PM 10.9525 101.5128 228° Southwest  Level FlightAware Approximate
Fri 05:16:00 PM 10.8806 101.4303 228° Southwest  Level FlightAware Approximate
Fri 05:17:00 PM 10.8086 101.3479 228° Southwest  Level FlightAware Approximate
Fri 05:18:00 PM 10.7366 101.2655 228° Southwest  Level FlightAware Approximate
Fri 05:19:00 PM 10.6645 101.1832 228° Southwest  Level FlightAware Approximate
Fri 05:20:00 PM 10.5925 101.1008 228° Southwest  Level FlightAware Approximate
Fri 05:21:00 PM 10.5204 101.0186 228° Southwest  Level FlightAware Approximate
Fri 05:22:00 PM 10.4483 100.9363 228° Southwest  Level FlightAware Approximate
Fri 05:23:00 PM 10.3761 100.8541 228° Southwest  Level FlightAware Approximate
Fri 05:24:00 PM 10.3040 100.7720 228° Southwest  Level FlightAware Approximate
Fri 05:25:00 PM 10.2318 100.6899 228° Southwest  Level FlightAware Approximate
Fri 05:26:00 PM 10.1596 100.6078 228° Southwest  Level FlightAware Approximate
Fri 05:27:00 PM 10.0874 100.5257 228° Southwest  Level FlightAware Approximate
Fri 05:28:00 PM 10.0152 100.4437 228° Southwest  Level FlightAware Approximate
Fri 05:29:00 PM 9.9430 100.3618 228° Southwest  Level FlightAware Approximate
Fri 05:30:00 PM 9.8707 100.2798 228° Southwest  Level FlightAware Approximate
Fri 05:31:00 PM 9.7984 100.1979 228° Southwest  Level FlightAware Approximate
Fri 05:32:00 PM 9.7261 100.1161 228° Southwest  Level FlightAware Approximate
Fri 05:33:00 PM 9.6538 100.0342 228° Southwest  Level FlightAware Approximate
Fri 05:34:00 PM 9.5814 99.9525 228° Southwest  Level FlightAware Approximate
Fri 05:35:00 PM 9.5091 99.8707 228° Southwest  Level FlightAware Approximate
Fri 05:36:00 PM 9.4367 99.7890 228° Southwest  Level FlightAware Approximate
Fri 05:37:00 PM 9.3643 99.7073 228° Southwest  Level FlightAware Approximate
Fri 05:38:00 PM 9.2919 99.6256 228° Southwest  Level FlightAware Approximate
Fri 05:39:00 PM 9.2194 99.5440 228° Southwest  Level FlightAware Approximate
Fri 05:40:00 PM 9.1470 99.4624 228° Southwest  Level FlightAware Approximate
Fri 05:41:00 PM 9.0745 99.3809 228° Southwest  Level FlightAware Approximate
Fri 05:42:00 PM 9.0020 99.2993 228° Southwest  Level FlightAware Approximate
Fri 05:43:00 PM 8.9295 99.2179 228° Southwest  Level FlightAware Approximate
Fri 05:44:00 PM 8.8569 99.1364 228° Southwest  Level FlightAware Approximate
Fri 05:45:00 PM 8.7844 99.0550 228° Southwest  Level FlightAware Approximate
Fri 05:46:00 PM 8.7118 98.9736 228° Southwest  Level FlightAware Approximate
Fri 05:47:00 PM 8.6392 98.8922 228° Southwest  Level FlightAware Approximate
Fri 05:48:00 PM 8.5667 98.8109 228° Southwest  Level FlightAware Approximate
Fri 05:49:00 PM 8.4940 98.7296 228° Southwest  Level FlightAware Approximate
Fri 05:50:00 PM 8.4214 98.6483 228° Southwest  Level FlightAware Approximate
Fri 05:51:00 PM 8.3488 98.5671 228° Southwest  Level FlightAware Approximate
Fri 05:52:00 PM 8.2761 98.4859 228° Southwest  Level FlightAware Approximate
Fri 05:53:00 PM 8.2034 98.4047 228° Southwest  Level FlightAware Approximate
Fri 05:54:00 PM 8.1395 98.3164 240° Southwest  Level Estimated
Fri 05:55:00 PM 8.0825 98.2233 238° Southwest  Level FlightAware Approximate
Fri 05:56:00 PM 8.0255 98.1302 238° Southwest  Level FlightAware Approximate
Fri 05:57:00 PM 7.9684 98.0372 238° Southwest  Level FlightAware Approximate
Fri 05:58:00 PM 7.9114 97.9442 238° Southwest  Level FlightAware Approximate
Fri 05:59:00 PM 7.8543 97.8513 238° Southwest  Level FlightAware Approximate
Fri 06:00:00 PM 7.7972 97.7583 238° Southwest  Level FlightAware Approximate
Fri 06:01:00 PM 7.7331 97.6702 238° Southwest  Level Estimated
Fri 06:02:00 PM 7.6800 97.5749 241° Southwest  Level FlightAware Approximate
Fri 06:03:00 PM 7.6158 97.4869 240° Southwest  Level Estimated
Fri 06:04:00 PM 7.5626 97.3917 241° Southwest  Level FlightAware Approximate
Fri 06:05:00 PM 7.5094 97.2965 241° Southwest  Level FlightAware Approximate
Fri 06:06:00 PM 7.4562 97.2013 241° Southwest  Level FlightAware Approximate
Fri 06:07:00 PM 7.4030 97.1061 241° Southwest  Level FlightAware Approximate
Fri 06:08:00 PM 7.3497 97.0110 241° Southwest  Level FlightAware Approximate
Fri 06:09:00 PM 7.2964 96.9159 241° Southwest  Level FlightAware Approximate
Fri 06:10:00 PM 7.2320 96.8281 240° Southwest  Level Estimated
Fri 06:11:00 PM 7.1789 96.7329 241° Southwest  Level FlightAware Approximate
Fri 06:12:00 PM 7.1259 96.6377 241° Southwest  Level FlightAware Approximate
Fri 06:13:00 PM 7.0728 96.5425 241° Southwest  Level FlightAware Approximate
Fri 06:14:00 PM 7.0197 96.4474 241° Southwest  Level FlightAware Approximate
Fri 06:15:00 PM 6.9666 96.3522 241° Southwest  Level FlightAware Approximate
Fri 06:16:00 PM 6.9134 96.2571 241° Southwest  Level FlightAware Approximate
Fri 06:17:00 PM 6.8603 96.1620 241° Southwest  Level FlightAware Approximate
Fri 06:18:00 PM 6.8071 96.0670 241° Southwest  Level FlightAware Approximate
Fri 06:19:00 PM 6.7423 95.9795 241° Southwest  Level Estimated
Fri 06:20:00 PM 6.6934 95.8822 243° Southwest  Level FlightAware Approximate
Fri 06:21:00 PM 6.6444 95.7849 243° Southwest  Level FlightAware Approximate
Fri 06:22:00 PM 6.5795 95.6975 239° Southwest  Level Estimated
Fri 06:23:00 PM 6.5266 95.6024 241° Southwest  Level FlightAware Approximate
Fri 06:24:00 PM 6.4736 95.5073 241° Southwest  Level FlightAware Approximate
Fri 06:25:00 PM 6.4207 95.4122 241° Southwest  Level FlightAware Approximate
Fri 06:26:00 PM 6.3677 95.3171 241° Southwest  Level FlightAware Approximate
Fri 06:27:00 PM 6.3146 95.2220 241° Southwest  Level FlightAware Approximate
Fri 06:28:00 PM 6.2616 95.1270 241° Southwest  Level FlightAware Approximate
Fri 06:29:00 PM 6.1965 95.0399 240° Southwest  Level Estimated
Fri 06:30:00 PM 6.1459 94.9436 242° Southwest  Level FlightAware Approximate
Fri 06:31:00 PM 6.0953 94.8472 242° Southwest  Level FlightAware Approximate
Fri 06:32:00 PM 6.0446 94.7509 242° Southwest  Level FlightAware Approximate
Fri 06:33:00 PM 5.9794 94.6639 234° Southwest  Level Estimated
Fri 06:34:00 PM 5.9170 94.5749 235° Southwest  Level FlightAware Approximate
Fri 06:35:00 PM 5.8546 94.4858 235° Southwest  Level FlightAware Approximate
Fri 06:36:00 PM 5.7922 94.3968 235° Southwest  Level FlightAware Approximate
Fri 06:37:00 PM 5.7298 94.3078 235° Southwest  Level FlightAware Approximate
Fri 06:38:00 PM 5.6673 94.2188 235° Southwest  Level FlightAware Approximate
Fri 06:39:00 PM 5.6049 94.1299 235° Southwest  Level FlightAware Approximate
Fri 06:40:00 PM 5.5424 94.0410 235° Southwest  Level FlightAware Approximate
Fri 06:41:00 PM 5.4799 93.9520 235° Southwest  Level FlightAware Approximate
Fri 06:42:00 PM 5.4175 93.8631 235° Southwest  Level FlightAware Approximate
Fri 06:43:00 PM 5.3520 93.7764 233° Southwest  Level Estimated
Fri 06:44:00 PM 5.2866 93.6897 233° Southwest  Level FlightAware Approximate
Fri 06:45:00 PM 5.2212 93.6029 233° Southwest  Level FlightAware Approximate
Fri 06:46:00 PM 5.1558 93.5162 233° Southwest  Level FlightAware Approximate
Fri 06:47:00 PM 5.0904 93.4295 233° Southwest  Level FlightAware Approximate
Fri 06:48:00 PM 5.0249 93.3428 233° Southwest  Level FlightAware Approximate
Fri 06:49:00 PM 4.9595 93.2562 233° Southwest  Level FlightAware Approximate
Fri 06:50:00 PM 4.8940 93.1695 233° Southwest  Level FlightAware Approximate
Fri 06:51:00 PM 4.8285 93.0829 233° Southwest  Level FlightAware Approximate
Fri 06:52:00 PM 4.7630 92.9963 233° Southwest  Level FlightAware Approximate
Fri 06:53:00 PM 4.6975 92.9097 233° Southwest  Level FlightAware Approximate
Fri 06:54:00 PM 4.6320 92.8232 233° Southwest  Level FlightAware Approximate
Fri 06:55:00 PM 4.5665 92.7366 233° Southwest  Level FlightAware Approximate
Fri 06:56:00 PM 4.5010 92.6501 233° Southwest  Level FlightAware Approximate
Fri 06:57:00 PM 4.4354 92.5635 233° Southwest  Level FlightAware Approximate
Fri 06:58:00 PM 4.3699 92.4770 233° Southwest  Level FlightAware Approximate
Fri 06:59:00 PM 4.3043 92.3905 233° Southwest  Level FlightAware Approximate
Fri 07:00:00 PM 4.2387 92.3040 233° Southwest  Level FlightAware Approximate
Fri 07:01:00 PM 4.1732 92.2176 233° Southwest  Level FlightAware Approximate
Fri 07:02:00 PM 4.1076 92.1311 233° Southwest  Level FlightAware Approximate
Fri 07:03:00 PM 4.0420 92.0447 233° Southwest  Level FlightAware Approximate
Fri 07:04:00 PM 3.9763 91.9583 232° Southwest  Level Estimated
Fri 07:05:00 PM 3.9102 91.8723 232° Southwest  Level FlightAware Approximate
Fri 07:06:00 PM 3.8440 91.7863 232° Southwest  Level FlightAware Approximate
Fri 07:07:00 PM 3.7778 91.7004 232° Southwest  Level FlightAware Approximate
Fri 07:08:00 PM 3.7116 91.6144 232° Southwest  Level FlightAware Approximate
Fri 07:09:00 PM 3.6454 91.5285 232° Southwest  Level FlightAware Approximate
Fri 07:10:00 PM 3.5791 91.4426 232° Southwest  Level FlightAware Approximate
Fri 07:11:00 PM 3.5129 91.3567 232° Southwest  Level FlightAware Approximate
Fri 07:12:00 PM 3.4467 91.2708 232° Southwest  Level FlightAware Approximate
Fri 07:13:00 PM 3.3805 91.1849 232° Southwest  Level FlightAware Approximate
Fri 07:14:00 PM 3.3142 91.0991 232° Southwest  Level FlightAware Approximate
Fri 07:15:00 PM 3.2479 91.0132 232° Southwest  Level FlightAware Approximate
Fri 07:16:00 PM 3.1817 90.9274 232° Southwest  Level FlightAware Approximate
Fri 07:17:00 PM 3.1154 90.8415 232° Southwest  Level FlightAware Approximate
Fri 07:18:00 PM 3.0491 90.7557 232° Southwest  Level FlightAware Approximate
Fri 07:19:00 PM 2.9829 90.6699 232° Southwest  Level FlightAware Approximate
Fri 07:20:00 PM 2.9166 90.5841 232° Southwest  Level FlightAware Approximate
Fri 07:21:00 PM 2.8503 90.4983 232° Southwest  Level FlightAware Approximate
Fri 07:22:00 PM 2.7840 90.4125 232° Southwest  Level FlightAware Approximate
Fri 07:23:00 PM 2.7176 90.3267 232° Southwest  Level FlightAware Approximate
Fri 07:24:00 PM 2.6513 90.2410 232° Southwest  Level FlightAware Approximate
Fri 07:25:00 PM 2.5850 90.1552 232° Southwest  Level FlightAware Approximate
Fri 07:26:00 PM 2.5187 90.0695 232° Southwest  Level FlightAware Approximate
Fri 07:27:00 PM 2.4523 89.9837 232° Southwest  Level FlightAware Approximate
Fri 07:28:00 PM 2.3860 89.8980 232° Southwest  Level FlightAware Approximate
Fri 07:29:00 PM 2.3197 89.8123 232° Southwest  Level FlightAware Approximate
Fri 07:30:00 PM 2.2539 89.7262 233° Southwest  Level Estimated
Fri 07:31:00 PM 2.1881 89.6400 233° Southwest  Level FlightAware Approximate
Fri 07:32:00 PM 2.1222 89.5539 233° Southwest  Level FlightAware Approximate
Fri 07:33:00 PM 2.0564 89.4678 233° Southwest  Level FlightAware Approximate
Fri 07:34:00 PM 1.9906 89.3817 233° Southwest  Level FlightAware Approximate
Fri 07:35:00 PM 1.9247 89.2956 233° Southwest  Level FlightAware Approximate
Fri 07:36:00 PM 1.8589 89.2095 233° Southwest  Level FlightAware Approximate
Fri 07:37:00 PM 1.7931 89.1234 233° Southwest  Level FlightAware Approximate
Fri 07:38:00 PM 1.7272 89.0374 233° Southwest  Level FlightAware Approximate
Fri 07:39:00 PM 1.6614 88.9513 233° Southwest  Level FlightAware Approximate
Fri 07:40:00 PM 1.5955 88.8652 233° Southwest  Level FlightAware Approximate
Fri 07:41:00 PM 1.5278 88.7767 233° Southwest  Level FlightAware Approximate
Fri 07:42:00 PM 1.4601 88.6882 233° Southwest  Level Estimated
Fri 07:43:00 PM 1.3924 88.5997 233° Southwest  Level FlightAware Approximate
Fri 07:44:00 PM 1.3248 88.5111 233° Southwest  Level FlightAware Approximate
Fri 07:45:00 PM 1.2572 88.4225 233° Southwest  Level FlightAware Approximate
Fri 07:46:00 PM 1.1895 88.3340 233° Southwest  Level FlightAware Approximate
Fri 07:47:00 PM 1.1218 88.2455 233° Southwest  Level FlightAware Approximate
Fri 07:48:00 PM 1.0542 88.1569 233° Southwest  Level FlightAware Approximate
Fri 07:49:00 PM 0.9865 88.0684 233° Southwest  Level FlightAware Approximate
Fri 07:50:00 PM 0.9189 87.9798 233° Southwest  Level FlightAware Approximate
Fri 07:51:00 PM 0.8512 87.8913 233° Southwest  Level FlightAware Approximate
Fri 07:52:00 PM 0.7835 87.8028 233° Southwest  Level FlightAware Approximate
Fri 07:53:00 PM 0.7159 87.7142 233° Southwest  Level FlightAware Approximate
Fri 07:54:00 PM 0.6482 87.6257 233° Southwest  Level FlightAware Approximate
Fri 07:55:00 PM 0.5805 87.5372 233° Southwest  Level FlightAware Approximate
Fri 07:56:00 PM 0.5129 87.4487 233° Southwest  Level FlightAware Approximate
Fri 07:57:00 PM 0.4452 87.3602 233° Southwest  Level FlightAware Approximate
Fri 07:58:00 PM 0.3775 87.2717 233° Southwest  Level FlightAware Approximate
Fri 07:59:00 PM 0.3098 87.1832 233° Southwest  Level FlightAware Approximate
Fri 08:00:00 PM 0.2422 87.0946 233° Southwest  Level FlightAware Approximate
Fri 08:01:00 PM 0.1745 87.0061 233° Southwest  Level FlightAware Approximate
Fri 08:02:00 PM 0.1068 86.9176 233° Southwest  Level FlightAware Approximate
Fri 08:03:00 PM 0.0391 86.8291 233° Southwest  Level FlightAware Approximate
Fri 08:04:00 PM -0.0285 86.7406 233° Southwest  Level FlightAware Approximate
Fri 08:05:00 PM -0.0962 86.6521 233° Southwest  Level FlightAware Approximate
Fri 08:06:00 PM -0.1639 86.5636 233° Southwest  Level FlightAware Approximate
Fri 08:07:00 PM -0.2316 86.4751 233° Southwest  Level FlightAware Approximate
Fri 08:08:00 PM -0.2993 86.3866 233° Southwest  Level Estimated
Fri 08:09:00 PM -0.3670 86.2981 233° Southwest  Level FlightAware Approximate
Fri 08:10:00 PM -0.4346 86.2095 233° Southwest  Level FlightAware Approximate
Fri 08:11:00 PM -0.5023 86.1210 233° Southwest  Level FlightAware Approximate
Fri 08:12:00 PM -0.5699 86.0325 233° Southwest  Level FlightAware Approximate
Fri 08:13:00 PM -0.6376 85.9439 233° Southwest  Level FlightAware Approximate
Fri 08:14:00 PM -0.7052 85.8554 233° Southwest  Level FlightAware Approximate
Fri 08:15:00 PM -0.7729 85.7668 233° Southwest  Level FlightAware Approximate
Fri 08:16:00 PM -0.8405 85.6783 233° Southwest  Level FlightAware Approximate
Fri 08:17:00 PM -0.9081 85.5897 233° Southwest  Level FlightAware Approximate
Fri 08:18:00 PM -0.9758 85.5012 233° Southwest  Level FlightAware Approximate
Fri 08:19:00 PM -1.0434 85.4126 233° Southwest  Level FlightAware Approximate
Fri 08:20:00 PM -1.1110 85.3241 233° Southwest  Level FlightAware Approximate
Fri 08:21:00 PM -1.1787 85.2355 233° Southwest  Level FlightAware Approximate
Fri 08:22:00 PM -1.2463 85.1469 233° Southwest  Level FlightAware Approximate
Fri 08:23:00 PM -1.3139 85.0583 233° Southwest  Level FlightAware Approximate
Fri 08:24:00 PM -1.3815 84.9698 233° Southwest  Level FlightAware Approximate
Fri 08:25:00 PM -1.4493 84.8813 233° Southwest  Level Estimated
Fri 08:26:00 PM -1.5169 84.7927 233° Southwest  Level FlightAware Approximate
Fri 08:27:00 PM -1.5846 84.7042 233° Southwest  Level FlightAware Approximate
Fri 08:28:00 PM -1.6522 84.6156 233° Southwest  Level FlightAware Approximate
Fri 08:29:00 PM -1.7198 84.5270 233° Southwest  Level FlightAware Approximate
Fri 08:30:00 PM -1.7875 84.4384 233° Southwest  Level FlightAware Approximate
Fri 08:31:00 PM -1.8551 84.3498 233° Southwest  Level FlightAware Approximate
Fri 08:32:00 PM -1.9227 84.2612 233° Southwest  Level FlightAware Approximate
Fri 08:33:00 PM -1.9905 84.1727 233° Southwest  Level Estimated
Fri 08:34:00 PM -2.0581 84.0841 233° Southwest  Level FlightAware Approximate
Fri 08:35:00 PM -2.1257 83.9955 233° Southwest  Level FlightAware Approximate
Fri 08:36:00 PM -2.1933 83.9068 233° Southwest  Level FlightAware Approximate
Fri 08:37:00 PM -2.2609 83.8182 233° Southwest  Level FlightAware Approximate
Fri 08:38:00 PM -2.3285 83.7296 233° Southwest  Level FlightAware Approximate
Fri 08:39:00 PM -2.3960 83.6409 233° Southwest  Level FlightAware Approximate
Fri 08:40:00 PM -2.4636 83.5522 233° Southwest  Level FlightAware Approximate
Fri 08:41:00 PM -2.5312 83.4635 233° Southwest  Level FlightAware Approximate
Fri 08:42:00 PM -2.5988 83.3749 233° Southwest  Level FlightAware Approximate
Fri 08:43:00 PM -2.6663 83.2862 233° Southwest  Level FlightAware Approximate
Fri 08:44:00 PM -2.7339 83.1975 233° Southwest  Level FlightAware Approximate
Fri 08:45:00 PM -2.8014 83.1088 233° Southwest  Level FlightAware Approximate
Fri 08:46:00 PM -2.8690 83.0200 233° Southwest  Level FlightAware Approximate
Fri 08:47:00 PM -2.9365 82.9313 233° Southwest  Level FlightAware Approximate
Fri 08:48:00 PM -3.0040 82.8426 233° Southwest  Level FlightAware Approximate
Fri 08:49:00 PM -3.0715 82.7538 233° Southwest  Level FlightAware Approximate
Fri 08:50:00 PM -3.1391 82.6650 233° Southwest  Level FlightAware Approximate
Fri 08:51:00 PM -3.2065 82.5763 233° Southwest  Level FlightAware Approximate
Fri 08:52:00 PM -3.2740 82.4875 233° Southwest  Level FlightAware Approximate
Fri 08:53:00 PM -3.3415 82.3987 233° Southwest  Level FlightAware Approximate
Fri 08:54:00 PM -3.4090 82.3099 233° Southwest  Level FlightAware Approximate
Fri 08:55:00 PM -3.4765 82.2210 233° Southwest  Level FlightAware Approximate
Fri 08:56:00 PM -3.5440 82.1322 233° Southwest  Level FlightAware Approximate
Fri 08:57:00 PM -3.6114 82.0433 233° Southwest  Level FlightAware Approximate
Fri 08:58:00 PM -3.6789 81.9545 233° Southwest  Level FlightAware Approximate
Fri 08:59:00 PM -3.7463 81.8656 233° Southwest  Level FlightAware Approximate
Fri 09:00:00 PM -3.8137 81.7767 233° Southwest  Level FlightAware Approximate
Fri 09:01:00 PM -3.8812 81.6878 233° Southwest  Level FlightAware Approximate
Fri 09:02:00 PM -3.9486 81.5989 233° Southwest  Level FlightAware Approximate
Fri 09:03:00 PM -4.0160 81.5099 233° Southwest  Level FlightAware Approximate
Fri 09:04:00 PM -4.0834 81.4210 233° Southwest  Level FlightAware Approximate
Fri 09:05:00 PM -4.1507 81.3320 233° Southwest  Level FlightAware Approximate
Fri 09:06:00 PM -4.2181 81.2430 233° Southwest  Level FlightAware Approximate
Fri 09:07:00 PM -4.2855 81.1540 233° Southwest  Level FlightAware Approximate
Fri 09:08:00 PM -4.3528 81.0650 233° Southwest  Level FlightAware Approximate
Fri 09:09:00 PM -4.4202 80.9760 233° Southwest  Level FlightAware Approximate
Fri 09:10:00 PM -4.4875 80.8870 233° Southwest  Level FlightAware Approximate
Fri 09:11:00 PM -4.5548 80.7979 233° Southwest  Level FlightAware Approximate
Fri 09:12:00 PM -4.6221 80.7088 233° Southwest  Level FlightAware Approximate
Fri 09:13:00 PM -4.6894 80.6197 233° Southwest  Level FlightAware Approximate
Fri 09:14:00 PM -4.7567 80.5306 233° Southwest  Level FlightAware Approximate
Fri 09:15:00 PM -4.8240 80.4415 233° Southwest  Level FlightAware Approximate
Fri 09:16:00 PM -4.8912 80.3523 233° Southwest  Level FlightAware Approximate
Fri 09:17:00 PM -4.9585 80.2632 233° Southwest  Level FlightAware Approximate
Fri 09:18:00 PM -5.0257 80.1740 233° Southwest  Level FlightAware Approximate
Fri 09:19:00 PM -5.0930 80.0848 233° Southwest  Level FlightAware Approximate
Fri 09:20:00 PM -5.1602 79.9956 233° Southwest  Level FlightAware Approximate
Fri 09:21:00 PM -5.2274 79.9063 233° Southwest  Level FlightAware Approximate
Fri 09:22:00 PM -5.2946 79.8171 233° Southwest  Level FlightAware Approximate
Fri 09:23:00 PM -5.3617 79.7278 233° Southwest  Level FlightAware Approximate
Fri 09:24:00 PM -5.4289 79.6385 233° Southwest  Level FlightAware Approximate
Fri 09:25:00 PM -5.4961 79.5492 233° Southwest  Level FlightAware Approximate
Fri 09:26:00 PM -5.5632 79.4599 233° Southwest  Level FlightAware Approximate
Fri 09:27:00 PM -5.6303 79.3705 233° Southwest  Level FlightAware Approximate
Fri 09:28:00 PM -5.6974 79.2811 233° Southwest  Level FlightAware Approximate
Fri 09:29:00 PM -5.7645 79.1917 233° Southwest  Level FlightAware Approximate
Fri 09:30:00 PM -5.8316 79.1023 233° Southwest  Level FlightAware Approximate
Fri 09:31:00 PM -5.8988 79.0130 233° Southwest  Level Estimated
Fri 09:32:00 PM -5.9659 78.9235 233° Southwest  Level FlightAware Approximate
Fri 09:33:00 PM -6.0329 78.8340 233° Southwest  Level FlightAware Approximate
Fri 09:34:00 PM -6.0999 78.7445 233° Southwest  Level FlightAware Approximate
Fri 09:35:00 PM -6.1669 78.6550 233° Southwest  Level FlightAware Approximate
Fri 09:36:00 PM -6.2339 78.5654 233° Southwest  Level FlightAware Approximate
Fri 09:37:00 PM -6.3009 78.4759 233° Southwest  Level FlightAware Approximate
Fri 09:38:00 PM -6.3679 78.3863 233° Southwest  Level FlightAware Approximate
Fri 09:39:00 PM -6.4348 78.2966 233° Southwest  Level FlightAware Approximate
Fri 09:40:00 PM -6.5017 78.2070 233° Southwest  Level FlightAware Approximate
Fri 09:41:00 PM -6.5687 78.1173 233° Southwest  Level FlightAware Approximate
Fri 09:42:00 PM -6.6356 78.0276 233° Southwest  Level FlightAware Approximate
Fri 09:43:00 PM -6.7024 77.9379 233° Southwest  Level FlightAware Approximate
Fri 09:44:00 PM -6.7693 77.8482 233° Southwest  Level FlightAware Approximate
Fri 09:45:00 PM -6.8362 77.7584 233° Southwest  Level FlightAware Approximate
Fri 09:46:00 PM -6.9030 77.6686 233° Southwest  Level FlightAware Approximate
Fri 09:47:00 PM -6.9698 77.5788 233° Southwest  Level FlightAware Approximate
Fri 09:48:00 PM -7.0366 77.4890 233° Southwest  Level FlightAware Approximate
Fri 09:49:00 PM -7.1034 77.3991 233° Southwest  Level FlightAware Approximate
Fri 09:50:00 PM -7.1702 77.3092 233° Southwest  Level FlightAware Approximate
Fri 09:51:00 PM -7.2369 77.2193 233° Southwest  Level FlightAware Approximate
Fri 09:52:00 PM -7.3037 77.1293 233° Southwest  Level FlightAware Approximate
Fri 09:53:00 PM -7.3704 77.0393 233° Southwest  Level FlightAware Approximate
Fri 09:54:00 PM -7.4371 76.9493 233° Southwest  Level FlightAware Approximate
Fri 09:55:00 PM -7.5037 76.8593 233° Southwest  Level FlightAware Approximate
Fri 09:56:00 PM -7.5704 76.7692 233° Southwest  Level FlightAware Approximate
Fri 09:57:00 PM -7.6371 76.6792 233° Southwest  Level FlightAware Approximate
Fri 09:58:00 PM -7.7037 76.5891 233° Southwest  Level FlightAware Approximate
Fri 09:59:00 PM -7.7703 76.4989 233° Southwest  Level FlightAware Approximate
Fri 10:00:00 PM -7.8369 76.4087 233° Southwest  Level FlightAware Approximate
Fri 10:01:00 PM -7.9034 76.3185 233° Southwest  Level FlightAware Approximate
Fri 10:02:00 PM -7.9700 76.2283 233° Southwest  Level FlightAware Approximate
Fri 10:03:00 PM -8.0365 76.1381 233° Southwest  Level FlightAware Approximate
Fri 10:04:00 PM -8.1030 76.0478 233° Southwest  Level FlightAware Approximate
Fri 10:05:00 PM -8.1695 75.9575 233° Southwest  Level FlightAware Approximate
Fri 10:06:00 PM -8.2360 75.8671 233° Southwest  Level FlightAware Approximate
Fri 10:07:00 PM -8.3024 75.7767 233° Southwest  Level FlightAware Approximate
Fri 10:08:00 PM -8.3688 75.6863 233° Southwest  Level FlightAware Approximate
Fri 10:09:00 PM -8.4352 75.5959 233° Southwest  Level FlightAware Approximate
Fri 10:10:00 PM -8.5016 75.5054 233° Southwest  Level FlightAware Approximate
Fri 10:11:00 PM -8.5680 75.4149 233° Southwest  Level FlightAware Approximate
Fri 10:12:00 PM -8.6343 75.3244 233° Southwest  Level FlightAware Approximate
Fri 10:13:00 PM -8.7007 75.2338 233° Southwest  Level FlightAware Approximate
Fri 10:14:00 PM -8.7669 75.1432 233° Southwest  Level FlightAware Approximate
Fri 10:15:00 PM -8.8332 75.0526 233° Southwest  Level FlightAware Approximate
Fri 10:16:00 PM -8.8996 74.9621 233° Southwest  Level Estimated
Fri 10:17:00 PM -8.9659 74.8714 233° Southwest  Level FlightAware Approximate
Fri 10:18:00 PM -9.0322 74.7807 234° Southwest  Level FlightAware Approximate
Fri 10:19:00 PM -9.0984 74.6900 234° Southwest  Level FlightAware Approximate
Fri 10:20:00 PM -9.1646 74.5992 234° Southwest  Level FlightAware Approximate
Fri 10:21:00 PM -9.2308 74.5084 234° Southwest  Level FlightAware Approximate
Fri 10:22:00 PM -9.2970 74.4176 234° Southwest  Level FlightAware Approximate
Fri 10:23:00 PM -9.3631 74.3267 234° Southwest  Level FlightAware Approximate
Fri 10:24:00 PM -9.4292 74.2358 234° Southwest  Level FlightAware Approximate
Fri 10:25:00 PM -9.4953 74.1449 234° Southwest  Level FlightAware Approximate
Fri 10:26:00 PM -9.5614 74.0539 234° Southwest  Level FlightAware Approximate
Fri 10:27:00 PM -9.6274 73.9629 234° Southwest  Level FlightAware Approximate
Fri 10:28:00 PM -9.6935 73.8718 234° Southwest  Level FlightAware Approximate
Fri 10:29:00 PM -9.7595 73.7808 234° Southwest  Level FlightAware Approximate
Fri 10:30:00 PM -9.8254 73.6897 234° Southwest  Level FlightAware Approximate
Fri 10:31:00 PM -9.8914 73.5985 234° Southwest  Level FlightAware Approximate
Fri 10:32:00 PM -9.9573 73.5073 234° Southwest  Level FlightAware Approximate
Fri 10:33:00 PM -10.0232 73.4161 234° Southwest  Level FlightAware Approximate
Fri 10:34:00 PM -10.0891 73.3248 234° Southwest  Level FlightAware Approximate
Fri 10:35:00 PM -10.1550 73.2335 234° Southwest  Level FlightAware Approximate
Fri 10:36:00 PM -10.2208 73.1422 234° Southwest  Level FlightAware Approximate
Fri 10:37:00 PM -10.2866 73.0508 234° Southwest  Level FlightAware Approximate
Fri 10:38:00 PM -10.3524 72.9594 234° Southwest  Level FlightAware Approximate
Fri 10:39:00 PM -10.4181 72.8680 234° Southwest  Level FlightAware Approximate
Fri 10:40:00 PM -10.4838 72.7765 234° Southwest  Level FlightAware Approximate
Fri 10:41:00 PM -10.5495 72.6850 234° Southwest  Level FlightAware Approximate
Fri 10:42:00 PM -10.6152 72.5934 234° Southwest  Level FlightAware Approximate
Fri 10:43:00 PM -10.6808 72.5018 234° Southwest  Level FlightAware Approximate
Fri 10:44:00 PM -10.7465 72.4101 234° Southwest  Level FlightAware Approximate
Fri 10:45:00 PM -10.8120 72.3185 234° Southwest  Level FlightAware Approximate
Fri 10:46:00 PM -10.8776 72.2267 234° Southwest  Level FlightAware Approximate
Fri 10:47:00 PM -10.9431 72.1350 234° Southwest  Level FlightAware Approximate
Fri 10:48:00 PM -11.0086 72.0432 234° Southwest  Level FlightAware Approximate
Fri 10:49:00 PM -11.0741 71.9513 234° Southwest  Level FlightAware Approximate
Fri 10:50:00 PM -11.1396 71.8594 234° Southwest  Level FlightAware Approximate
Fri 10:51:00 PM -11.2050 71.7675 234° Southwest  Level FlightAware Approximate
Fri 10:52:00 PM -11.2704 71.6755 234° Southwest  Level FlightAware Approximate
Fri 10:53:00 PM -11.3358 71.5835 234° Southwest  Level FlightAware Approximate
Fri 10:54:00 PM -11.4011 71.4914 234° Southwest  Level FlightAware Approximate
Fri 10:55:00 PM -11.4664 71.3994 234° Southwest  Level FlightAware Approximate
Fri 10:56:00 PM -11.5317 71.3072 234° Southwest  Level FlightAware Approximate
Fri 10:57:00 PM -11.5970 71.2150 234° Southwest  Level FlightAware Approximate
Fri 10:58:00 PM -11.6622 71.1228 234° Southwest  Level FlightAware Approximate
Fri 10:59:00 PM -11.7274 71.0305 234° Southwest  Level FlightAware Approximate
Fri 11:00:00 PM -11.7926 70.9382 234° Southwest  Level FlightAware Approximate
Fri 11:01:00 PM -11.8577 70.8459 234° Southwest  Level FlightAware Approximate
Fri 11:02:00 PM -11.9228 70.7535 234° Southwest  Level FlightAware Approximate
Fri 11:03:00 PM -11.9879 70.6610 234° Southwest  Level FlightAware Approximate
Fri 11:04:00 PM -12.0529 70.5685 234° Southwest  Level FlightAware Approximate
Fri 11:05:00 PM -12.1179 70.4760 234° Southwest  Level FlightAware Approximate
Fri 11:06:00 PM -12.1829 70.3834 234° Southwest  Level FlightAware Approximate
Fri 11:07:00 PM -12.2479 70.2908 234° Southwest  Level FlightAware Approximate
Fri 11:08:00 PM -12.3128 70.1981 234° Southwest  Level FlightAware Approximate
Fri 11:09:00 PM -12.3777 70.1054 234° Southwest  Level FlightAware Approximate
Fri 11:10:00 PM -12.4427 70.0128 234° Southwest  Level Estimated
Fri 11:11:00 PM -12.5076 69.9200 234° Southwest  Level FlightAware Approximate
Fri 11:12:00 PM -12.5723 69.8271 234° Southwest  Level FlightAware Approximate
Fri 11:13:00 PM -12.6371 69.7342 234° Southwest  Level FlightAware Approximate
Fri 11:14:00 PM -12.7018 69.6412 234° Southwest  Level FlightAware Approximate
Fri 11:15:00 PM -12.7665 69.5482 234° Southwest  Level FlightAware Approximate
Fri 11:16:00 PM -12.8312 69.4552 235° Southwest  Level FlightAware Approximate
Fri 11:17:00 PM -12.8958 69.3621 235° Southwest  Level FlightAware Approximate
Fri 11:18:00 PM -12.9604 69.2690 235° Southwest  Level FlightAware Approximate
Fri 11:19:00 PM -13.0250 69.1758 235° Southwest  Level FlightAware Approximate
Fri 11:20:00 PM -13.0895 69.0825 235° Southwest  Level FlightAware Approximate
Fri 11:21:00 PM -13.1540 68.9892 235° Southwest  Level FlightAware Approximate
Fri 11:22:00 PM -13.2185 68.8959 235° Southwest  Level FlightAware Approximate
Fri 11:23:00 PM -13.2829 68.8025 235° Southwest  Level FlightAware Approximate
Fri 11:24:00 PM -13.3473 68.7091 235° Southwest  Level FlightAware Approximate
Fri 11:25:00 PM -13.4117 68.6156 235° Southwest  Level FlightAware Approximate
Fri 11:26:00 PM -13.4760 68.5221 235° Southwest  Level FlightAware Approximate
Fri 11:27:00 PM -13.5403 68.4285 235° Southwest  Level FlightAware Approximate
Fri 11:28:00 PM -13.6046 68.3348 235° Southwest  Level FlightAware Approximate
Fri 11:29:00 PM -13.6688 68.2411 235° Southwest  Level FlightAware Approximate
Fri 11:30:00 PM -13.7330 68.1474 235° Southwest  Level FlightAware Approximate
Fri 11:31:00 PM -13.7971 68.0536 235° Southwest  Level FlightAware Approximate
Fri 11:32:00 PM -13.8612 67.9598 235° Southwest  Level FlightAware Approximate
Fri 11:33:00 PM -13.9253 67.8659 235° Southwest  Level FlightAware Approximate
Fri 11:34:00 PM -13.9894 67.7719 235° Southwest  Level FlightAware Approximate
Fri 11:35:00 PM -14.0534 67.6779 235° Southwest  Level FlightAware Approximate
Fri 11:36:00 PM -14.1174 67.5839 235° Southwest  Level FlightAware Approximate
Fri 11:37:00 PM -14.1813 67.4898 235° Southwest  Level FlightAware Approximate
Fri 11:38:00 PM -14.2452 67.3956 235° Southwest  Level FlightAware Approximate
Fri 11:39:00 PM -14.3091 67.3014 235° Southwest  Level FlightAware Approximate
Fri 11:40:00 PM -14.3729 67.2072 235° Southwest  Level FlightAware Approximate
Fri 11:41:00 PM -14.4367 67.1128 235° Southwest  Level FlightAware Approximate
Fri 11:42:00 PM -14.5004 67.0185 235° Southwest  Level FlightAware Approximate
Fri 11:43:00 PM -14.5641 66.9240 235° Southwest  Level FlightAware Approximate
Fri 11:44:00 PM -14.6278 66.8296 235° Southwest  Level FlightAware Approximate
Fri 11:45:00 PM -14.6915 66.7350 235° Southwest  Level FlightAware Approximate
Fri 11:46:00 PM -14.7551 66.6404 235° Southwest  Level FlightAware Approximate
Fri 11:47:00 PM -14.8186 66.5458 235° Southwest  Level FlightAware Approximate
Fri 11:48:00 PM -14.8821 66.4511 235° Southwest  Level FlightAware Approximate
Fri 11:49:00 PM -14.9456 66.3563 235° Southwest  Level FlightAware Approximate
Fri 11:50:00 PM -15.0091 66.2615 235° Southwest  Level FlightAware Approximate
Fri 11:51:00 PM -15.0725 66.1667 235° Southwest  Level FlightAware Approximate
Fri 11:52:00 PM -15.1358 66.0717 235° Southwest  Level FlightAware Approximate
Fri 11:53:00 PM -15.1992 65.9768 235° Southwest  Level FlightAware Approximate
Fri 11:54:00 PM -15.2625 65.8817 235° Southwest  Level FlightAware Approximate
Fri 11:55:00 PM -15.3257 65.7866 235° Southwest  Level FlightAware Approximate
Fri 11:56:00 PM -15.3889 65.6915 235° Southwest  Level FlightAware Approximate
Fri 11:57:00 PM -15.4521 65.5963 235° Southwest  Level FlightAware Approximate
Fri 11:58:00 PM -15.5152 65.5010 235° Southwest  Level FlightAware Approximate
Fri 11:59:00 PM -15.5783 65.4056 236° Southwest  Level FlightAware Approximate
Sat 12:00:00 AM -15.6413 65.3103 236° Southwest  Level FlightAware Approximate
Sat 12:01:00 AM -15.7043 65.2148 236° Southwest  Level FlightAware Approximate
Sat 12:02:00 AM -15.7673 65.1193 236° Southwest  Level FlightAware Approximate
Sat 12:03:00 AM -15.8305 65.0240 236° Southwest  Level Estimated
Sat 12:04:00 AM -15.8934 64.9283 236° Southwest  Level FlightAware Approximate
Sat 12:05:00 AM -15.9562 64.8327 236° Southwest  Level FlightAware Approximate
Sat 12:06:00 AM -16.0190 64.7369 236° Southwest  Level FlightAware Approximate
Sat 12:07:00 AM -16.0818 64.6411 236° Southwest  Level FlightAware Approximate
Sat 12:08:00 AM -16.1445 64.5452 236° Southwest  Level FlightAware Approximate
Sat 12:09:00 AM -16.2071 64.4493 236° Southwest  Level FlightAware Approximate
Sat 12:10:00 AM -16.2698 64.3533 236° Southwest  Level FlightAware Approximate
Sat 12:11:00 AM -16.3323 64.2573 236° Southwest  Level FlightAware Approximate
Sat 12:12:00 AM -16.3949 64.1612 236° Southwest  Level FlightAware Approximate
Sat 12:13:00 AM -16.4574 64.0650 236° Southwest  Level FlightAware Approximate
Sat 12:14:00 AM -16.5198 63.9688 236° Southwest  Level FlightAware Approximate
Sat 12:15:00 AM -16.5822 63.8725 236° Southwest  Level FlightAware Approximate
Sat 12:16:00 AM -16.6446 63.7761 236° Southwest  Level FlightAware Approximate
Sat 12:17:00 AM -16.7069 63.6797 236° Southwest  Level FlightAware Approximate
Sat 12:18:00 AM -16.7692 63.5832 236° Southwest  Level FlightAware Approximate
Sat 12:19:00 AM -16.8314 63.4867 236° Southwest  Level FlightAware Approximate
Sat 12:20:00 AM -16.8936 63.3901 236° Southwest  Level FlightAware Approximate
Sat 12:21:00 AM -16.9557 63.2934 236° Southwest  Level FlightAware Approximate
Sat 12:22:00 AM -17.0178 63.1967 236° Southwest  Level FlightAware Approximate
Sat 12:23:00 AM -17.0798 63.0999 236° Southwest  Level FlightAware Approximate
Sat 12:24:00 AM -17.1418 63.0030 236° Southwest  Level FlightAware Approximate
Sat 12:25:00 AM -17.2038 62.9061 236° Southwest  Level FlightAware Approximate
Sat 12:26:00 AM -17.2657 62.8091 236° Southwest  Level FlightAware Approximate
Sat 12:27:00 AM -17.3276 62.7120 236° Southwest  Level FlightAware Approximate
Sat 12:28:00 AM -17.3894 62.6149 236° Southwest  Level FlightAware Approximate
Sat 12:29:00 AM -17.4511 62.5177 236° Southwest  Level FlightAware Approximate
Sat 12:30:00 AM -17.5129 62.4205 236° Southwest  Level FlightAware Approximate
Sat 12:31:00 AM -17.5745 62.3231 236° Southwest  Level FlightAware Approximate
Sat 12:32:00 AM -17.6362 62.2257 236° Southwest  Level FlightAware Approximate
Sat 12:33:00 AM -17.6977 62.1283 236° Southwest  Level FlightAware Approximate
Sat 12:34:00 AM -17.7593 62.0308 236° Southwest  Level FlightAware Approximate
Sat 12:35:00 AM -17.8207 61.9332 236° Southwest  Level FlightAware Approximate
Sat 12:36:00 AM -17.8822 61.8355 237° Southwest  Level FlightAware Approximate
Sat 12:37:00 AM -17.9436 61.7378 237° Southwest  Level FlightAware Approximate
Sat 12:38:00 AM -18.0049 61.6400 237° Southwest  Level FlightAware Approximate
Sat 12:39:00 AM -18.0662 61.5421 237° Southwest  Level FlightAware Approximate
Sat 12:40:00 AM -18.1274 61.4442 237° Southwest  Level FlightAware Approximate
Sat 12:41:00 AM -18.1886 61.3462 237° Southwest  Level FlightAware Approximate
Sat 12:42:00 AM -18.2497 61.2482 237° Southwest  Level FlightAware Approximate
Sat 12:43:00 AM -18.3108 61.1500 237° Southwest  Level FlightAware Approximate
Sat 12:44:00 AM -18.3718 61.0518 237° Southwest  Level FlightAware Approximate
Sat 12:45:00 AM -18.4328 60.9535 237° Southwest  Level FlightAware Approximate
Sat 12:46:00 AM -18.4938 60.8552 237° Southwest  Level FlightAware Approximate
Sat 12:47:00 AM -18.5546 60.7568 237° Southwest  Level FlightAware Approximate
Sat 12:48:00 AM -18.6155 60.6583 237° Southwest  Level FlightAware Approximate
Sat 12:49:00 AM -18.6763 60.5598 237° Southwest  Level FlightAware Approximate
Sat 12:50:00 AM -18.7370 60.4611 237° Southwest  Level FlightAware Approximate
Sat 12:51:00 AM -18.7977 60.3624 237° Southwest  Level FlightAware Approximate
Sat 12:52:00 AM -18.8583 60.2637 237° Southwest  Level FlightAware Approximate
Sat 12:53:00 AM -18.9189 60.1648 237° Southwest  Level FlightAware Approximate
Sat 12:54:00 AM -18.9794 60.0659 237° Southwest  Level FlightAware Approximate

Login

Don't have an account? Register now (free) for customized features, flight alerts, and more!